createdAt,value
2022-07-29T00:01:46.875Z,31.77
2022-07-29T00:04:16.704Z,31.65
2022-07-29T00:06:46.468Z,31.56
2022-07-29T00:09:16.768Z,31.57
2022-07-29T00:11:46.182Z,31.61
2022-07-29T00:14:16.373Z,31.62
2022-07-29T00:16:46.085Z,31.58
2022-07-29T00:19:15.838Z,31.57
2022-07-29T00:21:45.924Z,31.59
2022-07-29T00:24:15.851Z,31.59
2022-07-29T00:26:46.166Z,31.62
2022-07-29T00:29:33.548Z,31.62
2022-07-29T00:32:05.226Z,31.67
2022-07-29T00:34:52.644Z,31.72
2022-07-29T00:37:22.088Z,31.68
2022-07-29T00:39:53.518Z,31.69
2022-07-29T00:42:22.947Z,31.74
2022-07-29T00:44:52.764Z,31.77
2022-07-29T00:47:22.596Z,31.76
2022-07-29T00:49:51.988Z,31.68
2022-07-29T00:52:21.545Z,31.55
2022-07-29T00:54:51.098Z,31.42
2022-07-29T00:57:20.381Z,31.32
2022-07-29T00:59:49.877Z,31.28
2022-07-29T01:02:19.520Z,31.29
2022-07-29T01:04:49.099Z,31.32
2022-07-29T01:07:20.667Z,31.35
2022-07-29T01:09:50.272Z,31.33
2022-07-29T01:12:30.092Z,31.31
2022-07-29T01:15:00.666Z,31.27
2022-07-29T01:17:59.455Z,31.23
2022-07-29T01:21:10.989Z,31.17
2022-07-29T01:24:10.704Z,31.07
2022-07-29T01:27:15.704Z,30.92
2022-07-29T01:30:01.974Z,30.82
2022-07-29T01:32:41.818Z,30.81
2022-07-29T01:35:24.344Z,30.82
2022-07-29T01:38:21.598Z,30.84
2022-07-29T01:41:12.059Z,30.86
2022-07-29T01:44:24.485Z,30.85
2022-07-29T01:47:01.249Z,30.83
2022-07-29T01:49:41.595Z,30.77
2022-07-29T01:52:28.590Z,30.74
2022-07-29T01:55:11.874Z,30.74
2022-07-29T01:57:49.136Z,30.73
2022-07-29T02:00:19.988Z,30.73
2022-07-29T02:02:51.851Z,30.68
2022-07-29T02:05:25.112Z,30.64
2022-07-29T02:07:58.452Z,30.59
2022-07-29T02:10:33.721Z,30.49
2022-07-29T02:13:05.353Z,30.36
2022-07-29T02:15:36.611Z,30.26
2022-07-29T02:18:15.741Z,30.14
2022-07-29T02:20:50.889Z,30.01
2022-07-29T02:23:27.425Z,29.84
2022-07-29T02:26:00.163Z,29.69
2022-07-29T02:28:33.453Z,29.55
2022-07-29T02:31:05.551Z,29.36
2022-07-29T02:33:36.322Z,29.20
2022-07-29T02:36:06.473Z,29.06
2022-07-29T02:38:53.344Z,28.95
2022-07-29T02:41:51.418Z,28.84
2022-07-29T02:44:24.614Z,28.74
2022-07-29T02:47:22.715Z,28.64
2022-07-29T02:50:25.004Z,28.52
2022-07-29T02:53:26.124Z,28.39
2022-07-29T02:56:03.895Z,28.26
2022-07-29T02:58:52.064Z,28.16
2022-07-29T03:01:27.732Z,28.07
2022-07-29T03:03:58.074Z,27.96
2022-07-29T03:06:38.560Z,27.84
2022-07-29T03:09:13.712Z,27.69
2022-07-29T03:11:50.116Z,27.58
2022-07-29T03:14:23.131Z,27.50
2022-07-29T03:16:54.018Z,27.41
2022-07-29T03:19:23.670Z,27.31
2022-07-29T03:21:53.856Z,27.18
2022-07-29T03:24:36.335Z,27.07
2022-07-29T03:27:07.790Z,27.01
2022-07-29T03:29:37.261Z,26.94
2022-07-29T03:32:09.105Z,26.87
2022-07-29T03:34:40.056Z,26.77
2022-07-29T03:37:09.717Z,26.70
2022-07-29T03:39:43.831Z,26.61
2022-07-29T03:42:18.351Z,26.51
2022-07-29T03:44:51.412Z,26.41
2022-07-29T03:47:43.670Z,26.34
2022-07-29T03:50:21.321Z,26.22
2022-07-29T03:52:51.621Z,26.08
2022-07-29T03:55:20.991Z,25.95
2022-07-29T03:57:52.983Z,25.83
2022-07-29T04:00:22.446Z,25.72
2022-07-29T04:02:51.695Z,25.57
2022-07-29T04:05:24.546Z,25.44
2022-07-29T04:07:54.338Z,25.26
2022-07-29T04:10:30.604Z,25.12
2022-07-29T04:13:02.521Z,24.97
2022-07-29T04:15:32.129Z,24.86
2022-07-29T04:18:04.243Z,24.73
2022-07-29T04:20:33.881Z,24.64
2022-07-29T04:23:03.253Z,24.56
2022-07-29T04:25:32.648Z,24.47
2022-07-29T04:28:04.852Z,24.38
2022-07-29T04:30:36.220Z,24.31
2022-07-29T04:33:08.957Z,24.24
2022-07-29T04:35:45.791Z,24.16
2022-07-29T04:38:20.248Z,24.06
2022-07-29T04:40:49.607Z,23.99
2022-07-29T04:43:20.550Z,23.91
2022-07-29T04:45:52.391Z,23.80
2022-07-29T04:48:26.678Z,23.71
2022-07-29T04:50:58.716Z,23.64
2022-07-29T04:53:28.969Z,23.57
2022-07-29T04:55:58.591Z,23.50
2022-07-29T04:58:28.457Z,23.42
2022-07-29T05:01:00.398Z,23.36
2022-07-29T05:03:29.661Z,23.30
2022-07-29T05:05:58.909Z,23.20
2022-07-29T05:08:28.161Z,23.10
2022-07-29T05:10:57.687Z,23.04
2022-07-29T05:13:27.145Z,22.98
2022-07-29T05:16:15.347Z,22.90
2022-07-29T05:18:44.783Z,22.80
2022-07-29T05:21:14.511Z,22.73
2022-07-29T05:23:44.000Z,22.66
2022-07-29T05:26:14.052Z,22.57
2022-07-29T05:28:43.178Z,22.47
2022-07-29T05:31:12.796Z,22.38
2022-07-29T05:33:42.209Z,22.29
2022-07-29T05:36:11.541Z,22.20
2022-07-29T05:38:40.985Z,22.12
2022-07-29T05:41:10.407Z,22.02
2022-07-29T05:43:39.734Z,21.90
2022-07-29T05:46:09.084Z,21.80
2022-07-29T05:48:38.539Z,21.69
2022-07-29T05:51:08.206Z,21.56
2022-07-29T05:53:37.664Z,21.47
2022-07-29T05:56:08.114Z,21.42
2022-07-29T05:58:37.294Z,21.35
2022-07-29T06:01:07.012Z,21.27
2022-07-29T06:03:36.804Z,21.20
2022-07-29T06:06:08.134Z,21.12
2022-07-29T06:08:38.369Z,21.06
2022-07-29T06:11:08.296Z,20.98
2022-07-29T06:13:37.815Z,20.91
2022-07-29T06:16:07.463Z,20.82
2022-07-29T06:18:37.348Z,20.74
2022-07-29T06:21:11.882Z,20.70
2022-07-29T06:23:42.274Z,20.64
2022-07-29T06:26:11.533Z,20.55
2022-07-29T06:28:41.421Z,20.49
2022-07-29T06:31:11.253Z,20.44
2022-07-29T06:33:40.573Z,20.36
2022-07-29T06:36:10.470Z,20.27
2022-07-29T06:38:47.536Z,20.19
2022-07-29T06:41:20.530Z,20.10
2022-07-29T06:43:52.208Z,20.01
2022-07-29T06:46:25.045Z,19.95
2022-07-29T06:48:55.129Z,19.86
2022-07-29T06:51:26.194Z,19.75
2022-07-29T06:53:59.958Z,19.65
2022-07-29T06:56:40.378Z,19.58
2022-07-29T06:59:12.875Z,19.52
2022-07-29T07:01:44.787Z,19.47
2022-07-29T07:04:15.780Z,19.38
2022-07-29T07:06:46.549Z,19.32
2022-07-29T07:09:15.812Z,19.23
2022-07-29T07:11:49.638Z,19.14
2022-07-29T07:14:20.176Z,19.05
2022-07-29T07:16:52.483Z,18.97
2022-07-29T07:19:25.160Z,18.88
2022-07-29T07:21:55.770Z,18.75
2022-07-29T07:24:25.171Z,18.68
2022-07-29T07:26:54.578Z,18.58
2022-07-29T07:29:24.059Z,18.51
2022-07-29T07:31:56.342Z,18.44
2022-07-29T07:34:29.858Z,18.35
2022-07-29T07:36:59.135Z,18.26
2022-07-29T07:39:28.453Z,18.16
2022-07-29T07:41:58.771Z,18.11
2022-07-29T07:44:28.253Z,18.04
2022-07-29T07:46:57.396Z,17.95
2022-07-29T07:49:33.350Z,17.87
2022-07-29T07:52:05.038Z,17.79
2022-07-29T07:54:36.067Z,17.71
2022-07-29T07:57:05.584Z,17.63
2022-07-29T07:59:34.752Z,17.56
2022-07-29T08:02:04.576Z,17.46
2022-07-29T08:04:34.686Z,17.40
2022-07-29T08:07:05.033Z,17.36
2022-07-29T08:09:34.979Z,17.30
2022-07-29T08:12:05.942Z,17.24
2022-07-29T08:14:36.294Z,17.20
2022-07-29T08:17:06.060Z,17.15
2022-07-29T08:19:35.221Z,17.07
2022-07-29T08:22:04.533Z,17.00
2022-07-29T08:24:45.890Z,16.90
2022-07-29T08:27:41.743Z,16.83
2022-07-29T08:30:06.658Z,16.81
2022-07-29T08:32:53.145Z,16.76
2022-07-29T08:35:26.499Z,16.70
2022-07-29T08:37:56.733Z,16.64
2022-07-29T08:40:30.607Z,16.59
2022-07-29T08:43:08.987Z,16.55
2022-07-29T08:45:50.116Z,16.55
2022-07-29T08:48:22.717Z,16.51
2022-07-29T08:50:58.386Z,16.47
2022-07-29T08:53:31.398Z,16.42
2022-07-29T08:56:01.666Z,16.42
2022-07-29T08:58:38.191Z,16.39
2022-07-29T09:01:12.468Z,16.36
2022-07-29T09:03:45.930Z,16.30
2022-07-29T09:06:22.073Z,16.24
2022-07-29T09:08:51.654Z,16.16
2022-07-29T09:11:20.901Z,16.10
2022-07-29T09:13:51.705Z,16.06
2022-07-29T09:16:43.889Z,16.02
2022-07-29T09:19:31.262Z,15.95
2022-07-29T09:22:04.070Z,15.89
2022-07-29T09:24:49.440Z,15.84
2022-07-29T09:27:31.039Z,15.81
2022-07-29T09:30:12.874Z,15.78
2022-07-29T09:33:04.854Z,15.75
2022-07-29T09:35:34.311Z,15.75
2022-07-29T09:38:16.780Z,15.77
2022-07-29T09:41:06.711Z,15.80
2022-07-29T09:43:37.078Z,15.84
2022-07-29T09:46:17.399Z,15.84
2022-07-29T09:48:50.496Z,15.85
2022-07-29T09:51:28.304Z,15.84
2022-07-29T09:54:41.052Z,15.82
2022-07-29T09:57:28.560Z,15.80
2022-07-29T10:00:17.240Z,15.79
2022-07-29T10:02:50.933Z,15.76
2022-07-29T10:05:36.535Z,15.71
2022-07-29T10:08:07.310Z,15.64
2022-07-29T10:10:43.482Z,15.52
2022-07-29T10:13:17.387Z,15.44
2022-07-29T10:15:48.231Z,15.37
2022-07-29T10:18:21.577Z,15.35
2022-07-29T10:20:52.093Z,15.32
2022-07-29T10:23:22.067Z,15.28
2022-07-29T10:25:52.061Z,15.23
2022-07-29T10:28:21.530Z,15.21
2022-07-29T10:30:55.181Z,15.22
2022-07-29T10:34:10.315Z,15.24
2022-07-29T10:37:37.541Z,15.24
2022-07-29T10:41:32.404Z,15.22
2022-07-29T10:44:23.229Z,15.14
2022-07-29T10:46:55.522Z,15.10
2022-07-29T10:49:30.387Z,15.03
2022-07-29T10:52:11.567Z,14.99
2022-07-29T10:54:49.693Z,14.95
2022-07-29T10:57:26.015Z,14.90
2022-07-29T11:00:17.293Z,14.88
2022-07-29T11:02:50.757Z,14.85
2022-07-29T11:05:39.957Z,14.84
2022-07-29T11:08:20.116Z,14.83
2022-07-29T11:10:52.482Z,14.83
2022-07-29T11:13:48.954Z,14.81
2022-07-29T11:16:21.298Z,14.80
2022-07-29T11:19:26.631Z,14.77
2022-07-29T11:22:01.270Z,14.76
2022-07-29T11:24:34.858Z,14.73
2022-07-29T11:27:23.137Z,14.72
2022-07-29T11:29:56.319Z,14.71
2022-07-29T11:32:41.683Z,14.70
2022-07-29T11:35:18.637Z,14.67
2022-07-29T11:38:09.881Z,14.63
2022-07-29T11:40:40.316Z,14.56
2022-07-29T11:43:12.100Z,14.51
2022-07-29T11:45:52.868Z,14.45
2022-07-29T11:48:31.788Z,14.42
2022-07-29T11:51:03.095Z,14.41
2022-07-29T11:53:33.383Z,14.39
2022-07-29T11:56:04.147Z,14.36
2022-07-29T11:58:34.061Z,14.33
2022-07-29T12:01:05.578Z,14.28
2022-07-29T12:06:26.715Z,14.21
2022-07-29T12:08:56.065Z,14.19
2022-07-29T12:11:25.794Z,14.15
2022-07-29T12:13:55.696Z,14.13
2022-07-29T12:16:29.641Z,14.11
2022-07-29T12:19:05.326Z,14.12
2022-07-29T12:21:59.749Z,14.10
2022-07-29T12:24:46.321Z,14.11
2022-07-29T12:27:28.632Z,14.10
2022-07-29T12:30:03.341Z,14.11
2022-07-29T12:32:48.273Z,14.11
2022-07-29T12:35:23.208Z,14.09
2022-07-29T12:37:54.206Z,14.09
2022-07-29T12:40:25.675Z,14.08
2022-07-29T12:43:20.856Z,14.07
2022-07-29T12:45:53.609Z,14.06
2022-07-29T12:48:44.987Z,14.04
2022-07-29T12:51:16.510Z,14.06
2022-07-29T12:54:15.346Z,14.07
2022-07-29T12:56:47.113Z,14.12
2022-07-29T12:59:23.672Z,14.20
2022-07-29T13:01:55.255Z,14.25
2022-07-29T13:04:30.902Z,14.28
2022-07-29T13:07:10.517Z,14.35
2022-07-29T13:09:45.828Z,14.42
2022-07-29T13:12:16.940Z,14.50
2022-07-29T13:14:50.954Z,14.58
2022-07-29T13:17:25.012Z,14.67
2022-07-29T13:20:08.852Z,14.72
2022-07-29T13:22:38.365Z,14.80
2022-07-29T13:25:08.733Z,14.85
2022-07-29T13:27:46.702Z,14.90
2022-07-29T13:30:16.412Z,14.96
2022-07-29T13:32:45.605Z,15.01
2022-07-29T13:35:15.452Z,15.04
2022-07-29T13:37:45.180Z,15.07
2022-07-29T13:40:16.134Z,15.13
2022-07-29T13:42:45.848Z,15.18
2022-07-29T13:45:16.919Z,15.22
2022-07-29T13:47:49.449Z,15.28
2022-07-29T13:50:19.023Z,15.32
2022-07-29T13:52:50.294Z,15.40
2022-07-29T13:55:19.724Z,15.47
2022-07-29T13:57:49.955Z,15.55
2022-07-29T14:00:22.824Z,15.63
2022-07-29T14:02:52.474Z,15.69
2022-07-29T14:05:21.833Z,15.75
2022-07-29T14:07:51.129Z,15.83
2022-07-29T14:10:20.534Z,15.89
2022-07-29T14:12:49.776Z,15.95
2022-07-29T14:15:19.393Z,15.99
2022-07-29T14:17:48.547Z,16.04
2022-07-29T14:20:18.661Z,16.10
2022-07-29T14:22:48.037Z,16.14
2022-07-29T14:25:19.052Z,16.19
2022-07-29T14:27:50.610Z,16.26
2022-07-29T14:30:20.260Z,16.34
2022-07-29T14:32:49.890Z,16.41
2022-07-29T14:35:22.013Z,16.49
2022-07-29T14:37:51.418Z,16.55
2022-07-29T14:40:20.778Z,16.60
2022-07-29T14:42:50.044Z,16.67
2022-07-29T14:45:19.563Z,16.73
2022-07-29T14:47:48.960Z,16.81
2022-07-29T14:50:18.628Z,16.87
2022-07-29T14:52:59.514Z,16.94
2022-07-29T14:55:32.165Z,17.03
2022-07-29T14:58:09.684Z,17.12
2022-07-29T15:00:40.696Z,17.21
2022-07-29T15:03:12.904Z,17.31
2022-07-29T15:05:59.814Z,17.42
2022-07-29T15:08:32.234Z,17.52
2022-07-29T15:11:02.742Z,17.62
2022-07-29T15:13:32.168Z,17.70
2022-07-29T15:16:01.521Z,17.79
2022-07-29T15:18:30.847Z,17.86
2022-07-29T15:21:02.766Z,17.94
2022-07-29T15:23:32.148Z,18.04
2022-07-29T15:26:01.445Z,18.17
2022-07-29T15:28:30.842Z,18.27
2022-07-29T15:31:00.471Z,18.38
2022-07-29T15:33:29.854Z,18.48
2022-07-29T15:36:01.294Z,18.56
2022-07-29T15:38:30.734Z,18.63
2022-07-29T15:41:00.190Z,18.72
2022-07-29T15:43:31.011Z,18.84
2022-07-29T15:46:18.918Z,18.95
2022-07-29T15:48:48.635Z,19.06
2022-07-29T15:51:18.978Z,19.17
2022-07-29T15:53:53.548Z,19.30
2022-07-29T15:56:23.331Z,19.43
2022-07-29T15:58:53.374Z,19.55
2022-07-29T16:01:22.881Z,19.72
2022-07-29T16:03:52.417Z,19.88
2022-07-29T16:06:22.032Z,20.05
2022-07-29T16:08:51.401Z,20.18
2022-07-29T16:11:20.897Z,20.33
2022-07-29T16:13:50.060Z,20.52
2022-07-29T16:16:20.869Z,20.71
2022-07-29T16:18:50.201Z,20.84
2022-07-29T16:21:20.632Z,21.01
2022-07-29T16:23:49.949Z,21.20
2022-07-29T16:26:19.836Z,21.33
2022-07-29T16:28:49.108Z,21.46
2022-07-29T16:31:23.984Z,21.59
2022-07-29T16:33:55.864Z,21.67
2022-07-29T16:36:25.466Z,21.77
2022-07-29T16:38:54.723Z,21.89
2022-07-29T16:41:24.515Z,22.10
2022-07-29T16:43:54.033Z,22.23
2022-07-29T16:46:24.382Z,22.35
2022-07-29T16:48:55.203Z,22.45
2022-07-29T16:51:24.561Z,22.57
2022-07-29T16:53:53.681Z,22.75
2022-07-29T16:56:23.038Z,22.92
2022-07-29T16:58:52.300Z,23.01
2022-07-29T17:01:21.686Z,23.09
2022-07-29T17:04:09.959Z,23.15
2022-07-29T17:06:42.392Z,23.26
2022-07-29T17:09:17.770Z,23.40
2022-07-29T17:11:53.833Z,23.52
2022-07-29T17:14:30.779Z,23.57
2022-07-29T17:17:03.293Z,23.69
2022-07-29T17:19:36.883Z,23.78
2022-07-29T17:22:18.804Z,23.84
2022-07-29T17:24:49.966Z,23.94
2022-07-29T17:27:19.783Z,24.08
2022-07-29T17:29:49.932Z,24.24
2022-07-29T17:32:19.340Z,24.34
2022-07-29T17:34:48.316Z,24.44
2022-07-29T17:37:17.659Z,24.53
2022-07-29T17:39:47.295Z,24.63
2022-07-29T17:42:16.995Z,24.79
2022-07-29T17:44:46.602Z,24.87
2022-07-29T17:47:16.678Z,24.96
2022-07-29T17:49:47.116Z,25.08
2022-07-29T17:52:18.995Z,25.25
2022-07-29T17:54:50.466Z,25.38
2022-07-29T17:57:19.981Z,25.49
2022-07-29T17:59:49.169Z,25.56
2022-07-29T18:02:19.370Z,25.64
2022-07-29T18:04:50.576Z,25.71
2022-07-29T18:07:20.551Z,25.85
2022-07-29T18:09:49.871Z,25.98
2022-07-29T18:12:19.055Z,26.06
2022-07-29T18:14:48.308Z,26.17
2022-07-29T18:17:17.414Z,26.26
2022-07-29T18:19:46.698Z,26.30
2022-07-29T18:22:16.409Z,26.39
2022-07-29T18:24:45.739Z,26.47
2022-07-29T18:27:15.043Z,26.53
2022-07-29T18:29:46.152Z,26.63
2022-07-29T18:32:28.832Z,26.71
2022-07-29T18:34:59.231Z,26.82
2022-07-29T18:38:00.702Z,27.03
2022-07-29T18:40:18.332Z,27.20
2022-07-29T18:42:48.780Z,27.27
2022-07-29T18:45:19.143Z,27.37
2022-07-29T18:47:50.583Z,27.45
2022-07-29T18:50:20.713Z,27.47
2022-07-29T18:52:50.736Z,27.52
2022-07-29T18:55:20.316Z,27.62
2022-07-29T18:57:54.987Z,27.69
2022-07-29T19:00:27.274Z,27.76
2022-07-29T19:02:57.995Z,27.80
2022-07-29T19:05:27.355Z,27.88
2022-07-29T19:07:57.257Z,28.06
2022-07-29T19:10:26.853Z,28.20
2022-07-29T19:12:57.974Z,28.32
2022-07-29T19:15:27.933Z,28.38
2022-07-29T19:18:00.991Z,28.44
2022-07-29T19:20:31.273Z,28.54
2022-07-29T19:23:01.336Z,28.64
2022-07-29T19:25:30.521Z,28.65
2022-07-29T19:27:59.819Z,28.67
2022-07-29T19:30:29.093Z,28.75
2022-07-29T19:32:58.913Z,28.79
2022-07-29T19:35:34.080Z,28.93
2022-07-29T19:38:04.086Z,29.00
2022-07-29T19:40:33.475Z,29.08
2022-07-29T19:43:02.977Z,29.18
2022-07-29T19:45:52.499Z,29.26
2022-07-29T19:48:21.800Z,29.30
2022-07-29T19:50:50.991Z,29.39
2022-07-29T19:53:25.268Z,29.64
2022-07-29T19:55:54.788Z,29.83
2022-07-29T19:58:26.952Z,29.93
2022-07-29T20:00:56.373Z,30.01
2022-07-29T20:03:25.541Z,30.05
2022-07-29T20:05:55.058Z,30.13
2022-07-29T20:08:24.567Z,30.24
2022-07-29T20:10:55.790Z,30.39
2022-07-29T20:13:25.993Z,30.54
2022-07-29T20:15:55.541Z,30.63
2022-07-29T20:18:24.940Z,30.73
2022-07-29T20:20:55.024Z,30.80
2022-07-29T20:23:24.412Z,30.86
2022-07-29T20:25:54.149Z,30.94
2022-07-29T20:28:24.878Z,31.03
2022-07-29T20:30:54.380Z,31.12
2022-07-29T20:33:23.965Z,31.17
2022-07-29T20:35:53.737Z,31.25
2022-07-29T20:38:22.940Z,31.31
2022-07-29T20:40:54.011Z,31.36
2022-07-29T20:43:23.927Z,31.41
2022-07-29T20:45:53.895Z,31.47
2022-07-29T20:48:24.032Z,31.51
2022-07-29T20:50:55.982Z,31.59
2022-07-29T20:53:25.298Z,31.66
2022-07-29T20:55:55.000Z,31.77
2022-07-29T20:58:24.354Z,31.89
2022-07-29T21:00:53.758Z,31.98
2022-07-29T21:03:23.644Z,32.08
2022-07-29T21:05:53.447Z,32.12
2022-07-29T21:08:22.752Z,32.10
2022-07-29T21:10:52.362Z,32.09
2022-07-29T21:13:23.487Z,32.10
2022-07-29T21:15:53.495Z,32.17
2022-07-29T21:18:34.600Z,32.26
2022-07-29T21:21:04.700Z,32.39
2022-07-29T21:23:34.094Z,32.48
2022-07-29T21:26:03.764Z,32.54
2022-07-29T21:28:42.920Z,32.57
2022-07-29T21:31:16.105Z,32.57
2022-07-29T21:33:48.391Z,32.58
2022-07-29T21:39:10.749Z,32.45
2022-07-29T21:41:40.039Z,32.40
2022-07-29T21:44:09.579Z,32.33
2022-07-29T21:46:38.983Z,32.24
2022-07-29T21:49:08.579Z,32.13
2022-07-29T21:51:37.961Z,31.99
2022-07-29T21:54:07.568Z,31.82
2022-07-29T21:56:37.918Z,31.68
2022-07-29T21:59:09.621Z,31.50
2022-07-29T22:01:39.854Z,31.22
2022-07-29T22:04:09.448Z,31.03
2022-07-29T22:06:39.028Z,30.87
2022-07-29T22:09:09.725Z,30.63
2022-07-29T22:11:40.691Z,30.29
2022-07-29T22:14:10.065Z,29.93
2022-07-29T22:16:39.447Z,29.64
2022-07-29T22:19:08.814Z,29.42
2022-07-29T22:21:38.427Z,29.19
2022-07-29T22:24:09.230Z,28.95
2022-07-29T22:26:39.575Z,28.79
2022-07-29T22:29:08.918Z,28.76
2022-07-29T22:31:38.170Z,28.72
2022-07-29T22:34:13.054Z,28.67
2022-07-29T22:36:42.621Z,28.60
2022-07-29T22:39:11.846Z,28.44
2022-07-29T22:41:45.354Z,28.23
2022-07-29T22:44:14.607Z,28.15
2022-07-29T22:46:43.862Z,28.20
2022-07-29T22:49:13.403Z,28.20
2022-07-29T22:51:42.926Z,28.23
2022-07-29T22:54:12.954Z,28.29
2022-07-29T22:56:42.441Z,28.32
2022-07-29T22:59:13.168Z,28.29
2022-07-29T23:01:42.734Z,28.26
2022-07-29T23:04:11.975Z,28.21
2022-07-29T23:06:41.398Z,28.07
2022-07-29T23:09:10.667Z,27.92
2022-07-29T23:11:40.361Z,27.77
2022-07-29T23:14:09.726Z,27.58
2022-07-29T23:16:39.109Z,27.39
2022-07-29T23:19:08.352Z,27.24
2022-07-29T23:21:38.170Z,27.06
2022-07-29T23:24:07.650Z,26.94
2022-07-29T23:26:37.948Z,26.83
2022-07-29T23:29:07.309Z,26.69
2022-07-29T23:31:41.813Z,26.58
2022-07-29T23:34:17.521Z,26.52
2022-07-29T23:36:47.516Z,26.52
2022-07-29T23:39:16.942Z,26.60
2022-07-29T23:41:46.223Z,26.63
2022-07-29T23:44:15.671Z,26.63
2022-07-29T23:46:45.852Z,26.65
2022-07-29T23:49:15.846Z,26.65
2022-07-29T23:51:45.333Z,26.63
2022-07-29T23:54:15.301Z,26.63
2022-07-29T23:56:44.720Z,26.65
2022-07-29T23:59:15.998Z,26.63
